Terminal Aerodrome Forecast
Issued by NWS Paducah, KY

Home | Current Version | Previous Version | Text Only | Print | Product List | Glossary On
Versions: 1 2 3 4 5 6 7 8 9 10 11 12 13 14 15 16 17 18 19 20
413
FTUS43 KPAH 262320
TAFPAH
TAF
KPAH 262320Z 2700/2724 34005KT P6SM FEW250
     FM270300 26004KT P6SM SCT050
     FM271500 30009KT P6SM SCT050=

USA.gov is the U.S. government's official web portal to all federal, state and local government web resources and services.